sensor_id;sensor_type;location;lat;lon;timestamp;temperature;humidity
4962;DHT22;2496;52.468;13.342;2023-02-26T00:00:35;0.20;99.90
4962;DHT22;2496;52.468;13.342;2023-02-26T00:03:03;0.20;99.90
4962;DHT22;2496;52.468;13.342;2023-02-26T00:05:30;0.20;99.90
4962;DHT22;2496;52.468;13.342;2023-02-26T00:07:58;0.20;99.90
4962;DHT22;2496;52.468;13.342;2023-02-26T00:10:25;0.20;99.90
4962;DHT22;2496;52.468;13.342;2023-02-26T00:12:53;0.10;99.90
4962;DHT22;2496;52.468;13.342;2023-02-26T00:15:23;0.10;99.90
4962;DHT22;2496;52.468;13.342;2023-02-26T00:17:54;0.10;99.90
4962;DHT22;2496;52.468;13.342;2023-02-26T00:20:24;0.10;99.90
4962;DHT22;2496;52.468;13.342;2023-02-26T00:22:52;0.10;99.90
4962;DHT22;2496;52.468;13.342;2023-02-26T00:25:20;0.10;99.90
4962;DHT22;2496;52.468;13.342;2023-02-26T00:27:48;0.20;99.90
4962;DHT22;2496;52.468;13.342;2023-02-26T00:30:16;0.20;99.90
4962;DHT22;2496;52.468;13.342;2023-02-26T00:32:46;0.20;99.90
4962;DHT22;2496;52.468;13.342;2023-02-26T00:35:15;0.30;99.90
4962;DHT22;2496;52.468;13.342;2023-02-26T00:38:04;0.30;99.90
4962;DHT22;2496;52.468;13.342;2023-02-26T00:40:38;0.30;99.90
4962;DHT22;2496;52.468;13.342;2023-02-26T00:43:11;0.30;99.90
4962;DHT22;2496;52.468;13.342;2023-02-26T00:45:48;0.30;99.90
4962;DHT22;2496;52.468;13.342;2023-02-26T00:48:37;0.30;99.90
4962;DHT22;2496;52.468;13.342;2023-02-26T00:51:15;0.20;99.90
4962;DHT22;2496;52.468;13.342;2023-02-26T00:53:49;0.20;99.90
4962;DHT22;2496;52.468;13.342;2023-02-26T00:56:18;0.20;99.90
4962;DHT22;2496;52.468;13.342;2023-02-26T00:58:46;0.20;99.90
4962;DHT22;2496;52.468;13.342;2023-02-26T01:01:13;0.20;99.90
4962;DHT22;2496;52.468;13.342;2023-02-26T01:03:42;0.30;99.90
4962;DHT22;2496;52.468;13.342;2023-02-26T01:06:12;0.30;99.90
4962;DHT22;2496;52.468;13.342;2023-02-26T01:08:45;0.30;99.90
4962;DHT22;2496;52.468;13.342;2023-02-26T01:11:14;0.30;99.90
4962;DHT22;2496;52.468;13.342;2023-02-26T01:13:42;0.30;99.90
4962;DHT22;2496;52.468;13.342;2023-02-26T01:16:16;0.30;99.90
4962;DHT22;2496;52.468;13.342;2023-02-26T01:18:55;0.30;99.90
4962;DHT22;2496;52.468;13.342;2023-02-26T01:21:28;0.30;99.90
4962;DHT22;2496;52.468;13.342;2023-02-26T01:24:01;0.30;99.90
4962;DHT22;2496;52.468;13.342;2023-02-26T01:26:30;0.40;99.90
4962;DHT22;2496;52.468;13.342;2023-02-26T01:28:57;0.40;99.90
4962;DHT22;2496;52.468;13.342;2023-02-26T01:31:38;0.40;99.90
4962;DHT22;2496;52.468;13.342;2023-02-26T01:34:16;0.40;99.90
4962;DHT22;2496;52.468;13.342;2023-02-26T01:36:53;0.40;99.90
4962;DHT22;2496;52.468;13.342;2023-02-26T01:39:31;0.50;99.90
4962;DHT22;2496;52.468;13.342;2023-02-26T01:42:12;0.50;99.90
4962;DHT22;2496;52.468;13.342;2023-02-26T01:44:47;0.50;99.90
4962;DHT22;2496;52.468;13.342;2023-02-26T01:47:19;0.50;99.90
4962;DHT22;2496;52.468;13.342;2023-02-26T01:49:49;0.50;99.90
4962;DHT22;2496;52.468;13.342;2023-02-26T01:55:28;0.50;99.90
4962;DHT22;2496;52.468;13.342;2023-02-26T01:57:57;0.50;99.90
4962;DHT22;2496;52.468;13.342;2023-02-26T02:00:26;0.50;99.90
4962;DHT22;2496;52.468;13.342;2023-02-26T02:02:54;0.50;99.90
4962;DHT22;2496;52.468;13.342;2023-02-26T02:05:30;0.50;99.90
4962;DHT22;2496;52.468;13.342;2023-02-26T02:07:59;0.50;99.90
4962;DHT22;2496;52.468;13.342;2023-02-26T02:10:27;0.50;99.90
4962;DHT22;2496;52.468;13.342;2023-02-26T02:13:00;0.50;99.90
4962;DHT22;2496;52.468;13.342;2023-02-26T02:15:41;0.60;99.90
4962;DHT22;2496;52.468;13.342;2023-02-26T02:18:17;0.60;99.90
4962;DHT22;2496;52.468;13.342;2023-02-26T02:21:06;0.60;99.90
4962;DHT22;2496;52.468;13.342;2023-02-26T02:23:43;0.60;99.90
4962;DHT22;2496;52.468;13.342;2023-02-26T02:26:32;0.60;99.90
4962;DHT22;2496;52.468;13.342;2023-02-26T02:32:01;0.60;99.90
4962;DHT22;2496;52.468;13.342;2023-02-26T02:34:35;0.60;99.90
4962;DHT22;2496;52.468;13.342;2023-02-26T02:37:07;0.60;99.90
4962;DHT22;2496;52.468;13.342;2023-02-26T02:39:45;0.60;99.90
4962;DHT22;2496;52.468;13.342;2023-02-26T02:42:23;0.60;99.90
4962;DHT22;2496;52.468;13.342;2023-02-26T02:44:58;0.60;99.90
4962;DHT22;2496;52.468;13.342;2023-02-26T02:47:31;0.60;99.90
4962;DHT22;2496;52.468;13.342;2023-02-26T02:50:05;0.70;99.90
4962;DHT22;2496;52.468;13.342;2023-02-26T02:52:40;0.70;99.90
4962;DHT22;2496;52.468;13.342;2023-02-26T02:55:20;0.70;99.90
4962;DHT22;2496;52.468;13.342;2023-02-26T02:57:51;0.70;99.90
4962;DHT22;2496;52.468;13.342;2023-02-26T03:00:21;0.70;99.90
4962;DHT22;2496;52.468;13.342;2023-02-26T03:02:58;0.60;99.90
4962;DHT22;2496;52.468;13.342;2023-02-26T03:05:28;0.60;99.90
4962;DHT22;2496;52.468;13.342;2023-02-26T03:07:59;0.60;99.90
4962;DHT22;2496;52.468;13.342;2023-02-26T03:10:28;0.60;99.90
4962;DHT22;2496;52.468;13.342;2023-02-26T03:12:56;0.60;99.90
4962;DHT22;2496;52.468;13.342;2023-02-26T03:15:41;0.60;99.90
4962;DHT22;2496;52.468;13.342;2023-02-26T03:18:20;0.60;99.90
4962;DHT22;2496;52.468;13.342;2023-02-26T03:20:57;0.60;99.90
4962;DHT22;2496;52.468;13.342;2023-02-26T03:23:32;0.60;99.90
4962;DHT22;2496;52.468;13.342;2023-02-26T03:26:08;0.70;99.90
4962;DHT22;2496;52.468;13.342;2023-02-26T03:28:40;0.60;99.90
4962;DHT22;2496;52.468;13.342;2023-02-26T03:31:16;0.60;99.90
4962;DHT22;2496;52.468;13.342;2023-02-26T03:33:51;0.60;99.90
4962;DHT22;2496;52.468;13.342;2023-02-26T03:36:24;0.60;99.90
4962;DHT22;2496;52.468;13.342;2023-02-26T03:38:56;0.50;99.90
4962;DHT22;2496;52.468;13.342;2023-02-26T03:41:28;0.50;99.90
4962;DHT22;2496;52.468;13.342;2023-02-26T03:43:59;0.50;99.90
4962;DHT22;2496;52.468;13.342;2023-02-26T03:46:31;0.50;99.90
4962;DHT22;2496;52.468;13.342;2023-02-26T03:49:05;0.50;99.90
4962;DHT22;2496;52.468;13.342;2023-02-26T03:51:38;0.50;99.90
4962;DHT22;2496;52.468;13.342;2023-02-26T03:54:09;0.50;99.90
4962;DHT22;2496;52.468;13.342;2023-02-26T03:56:41;0.50;99.90
4962;DHT22;2496;52.468;13.342;2023-02-26T03:59:12;0.60;99.90
4962;DHT22;2496;52.468;13.342;2023-02-26T04:01:43;0.60;99.90
4962;DHT22;2496;52.468;13.342;2023-02-26T04:04:16;0.60;99.90
4962;DHT22;2496;52.468;13.342;2023-02-26T04:06:45;0.60;99.90
4962;DHT22;2496;52.468;13.342;2023-02-26T04:09:13;0.60;99.90
4962;DHT22;2496;52.468;13.342;2023-02-26T04:11:43;0.60;99.90
4962;DHT22;2496;52.468;13.342;2023-02-26T04:14:11;0.60;99.90
4962;DHT22;2496;52.468;13.342;2023-02-26T04:16:38;0.60;99.90
4962;DHT22;2496;52.468;13.342;2023-02-26T04:19:06;0.60;99.90
4962;DHT22;2496;52.468;13.342;2023-02-26T04:21:35;0.50;99.90
4962;DHT22;2496;52.468;13.342;2023-02-26T04:24:03;0.50;99.90
4962;DHT22;2496;52.468;13.342;2023-02-26T04:26:31;0.50;99.90
4962;DHT22;2496;52.468;13.342;2023-02-26T04:28:59;0.50;99.90
4962;DHT22;2496;52.468;13.342;2023-02-26T04:31:26;0.50;99.90
4962;DHT22;2496;52.468;13.342;2023-02-26T04:33:54;0.60;99.90
4962;DHT22;2496;52.468;13.342;2023-02-26T04:36:21;0.60;99.90
4962;DHT22;2496;52.468;13.342;2023-02-26T04:38:50;0.70;99.90
4962;DHT22;2496;52.468;13.342;2023-02-26T04:41:17;0.70;99.90
4962;DHT22;2496;52.468;13.342;2023-02-26T04:43:45;0.70;99.90
4962;DHT22;2496;52.468;13.342;2023-02-26T04:46:12;0.70;99.90
4962;DHT22;2496;52.468;13.342;2023-02-26T04:48:40;0.70;99.90
4962;DHT22;2496;52.468;13.342;2023-02-26T04:51:08;0.70;99.90
4962;DHT22;2496;52.468;13.342;2023-02-26T04:53:35;0.70;99.90
4962;DHT22;2496;52.468;13.342;2023-02-26T04:56:05;0.70;99.90
4962;DHT22;2496;52.468;13.342;2023-02-26T04:58:35;0.70;99.90
4962;DHT22;2496;52.468;13.342;2023-02-26T05:01:03;0.70;99.90
4962;DHT22;2496;52.468;13.342;2023-02-26T05:03:31;0.70;99.90
4962;DHT22;2496;52.468;13.342;2023-02-26T05:05:58;0.70;99.90
4962;DHT22;2496;52.468;13.342;2023-02-26T05:08:27;0.70;99.90
4962;DHT22;2496;52.468;13.342;2023-02-26T05:10:54;0.80;99.90
4962;DHT22;2496;52.468;13.342;2023-02-26T05:13:23;0.80;99.90
4962;DHT22;2496;52.468;13.342;2023-02-26T05:15:52;0.80;99.90
4962;DHT22;2496;52.468;13.342;2023-02-26T05:18:20;0.80;99.90
4962;DHT22;2496;52.468;13.342;2023-02-26T05:20:52;0.80;99.90
4962;DHT22;2496;52.468;13.342;2023-02-26T05:23:20;0.80;99.90
4962;DHT22;2496;52.468;13.342;2023-02-26T05:25:47;0.80;99.90
4962;DHT22;2496;52.468;13.342;2023-02-26T05:28:15;0.70;99.90
4962;DHT22;2496;52.468;13.342;2023-02-26T05:30:44;0.70;99.90
4962;DHT22;2496;52.468;13.342;2023-02-26T05:33:11;0.70;99.90
4962;DHT22;2496;52.468;13.342;2023-02-26T05:35:39;0.70;99.90
4962;DHT22;2496;52.468;13.342;2023-02-26T05:38:06;0.80;99.90
4962;DHT22;2496;52.468;13.342;2023-02-26T05:40:34;0.70;99.90
4962;DHT22;2496;52.468;13.342;2023-02-26T05:43:02;0.80;99.90
4962;DHT22;2496;52.468;13.342;2023-02-26T05:45:30;0.80;99.90
4962;DHT22;2496;52.468;13.342;2023-02-26T05:48:03;0.80;99.90
4962;DHT22;2496;52.468;13.342;2023-02-26T05:50:31;0.90;99.90
4962;DHT22;2496;52.468;13.342;2023-02-26T05:53:09;0.90;99.90
4962;DHT22;2496;52.468;13.342;2023-02-26T05:55:36;0.80;99.90
4962;DHT22;2496;52.468;13.342;2023-02-26T05:58:04;0.80;99.90
4962;DHT22;2496;52.468;13.342;2023-02-26T06:00:36;0.80;99.90
4962;DHT22;2496;52.468;13.342;2023-02-26T06:03:05;0.80;99.90
4962;DHT22;2496;52.468;13.342;2023-02-26T06:05:37;0.80;99.90
4962;DHT22;2496;52.468;13.342;2023-02-26T06:08:05;0.80;99.90
4962;DHT22;2496;52.468;13.342;2023-02-26T06:10:33;0.90;99.90
4962;DHT22;2496;52.468;13.342;2023-02-26T06:13:01;0.80;99.90
4962;DHT22;2496;52.468;13.342;2023-02-26T06:15:28;0.80;99.90
4962;DHT22;2496;52.468;13.342;2023-02-26T06:17:55;0.90;99.90
4962;DHT22;2496;52.468;13.342;2023-02-26T06:20:24;0.90;99.90
4962;DHT22;2496;52.468;13.342;2023-02-26T06:22:51;0.90;99.90
4962;DHT22;2496;52.468;13.342;2023-02-26T06:25:18;0.90;99.90
4962;DHT22;2496;52.468;13.342;2023-02-26T06:27:45;0.90;99.90
4962;DHT22;2496;52.468;13.342;2023-02-26T06:30:13;0.90;99.90
4962;DHT22;2496;52.468;13.342;2023-02-26T06:32:40;0.90;99.90
4962;DHT22;2496;52.468;13.342;2023-02-26T06:35:08;0.90;99.90
4962;DHT22;2496;52.468;13.342;2023-02-26T06:37:37;0.80;99.90
4962;DHT22;2496;52.468;13.342;2023-02-26T06:40:05;0.80;99.90
4962;DHT22;2496;52.468;13.342;2023-02-26T06:42:33;0.80;99.90
4962;DHT22;2496;52.468;13.342;2023-02-26T06:45:01;0.90;99.90
4962;DHT22;2496;52.468;13.342;2023-02-26T06:47:28;0.90;99.90
4962;DHT22;2496;52.468;13.342;2023-02-26T06:49:55;0.90;99.90
4962;DHT22;2496;52.468;13.342;2023-02-26T06:52:22;0.90;99.90
4962;DHT22;2496;52.468;13.342;2023-02-26T06:54:51;1.00;99.90
4962;DHT22;2496;52.468;13.342;2023-02-26T06:57:18;1.00;99.90
4962;DHT22;2496;52.468;13.342;2023-02-26T06:59:45;1.10;99.90
4962;DHT22;2496;52.468;13.342;2023-02-26T07:02:15;1.10;99.90
4962;DHT22;2496;52.468;13.342;2023-02-26T07:04:43;1.10;99.90
4962;DHT22;2496;52.468;13.342;2023-02-26T07:07:10;1.10;99.90
4962;DHT22;2496;52.468;13.342;2023-02-26T07:09:38;1.10;99.90
4962;DHT22;2496;52.468;13.342;2023-02-26T07:12:07;1.00;99.90
4962;DHT22;2496;52.468;13.342;2023-02-26T07:14:34;1.00;99.90
4962;DHT22;2496;52.468;13.342;2023-02-26T07:17:01;1.10;99.90
4962;DHT22;2496;52.468;13.342;2023-02-26T07:19:29;1.10;99.90
4962;DHT22;2496;52.468;13.342;2023-02-26T07:21:56;1.10;99.90
4962;DHT22;2496;52.468;13.342;2023-02-26T07:24:23;1.10;99.90
4962;DHT22;2496;52.468;13.342;2023-02-26T07:26:52;1.10;99.90
4962;DHT22;2496;52.468;13.342;2023-02-26T07:29:21;1.20;99.90
4962;DHT22;2496;52.468;13.342;2023-02-26T07:31:48;1.10;99.90
4962;DHT22;2496;52.468;13.342;2023-02-26T07:34:15;1.10;99.90
4962;DHT22;2496;52.468;13.342;2023-02-26T07:36:42;1.10;99.90
4962;DHT22;2496;52.468;13.342;2023-02-26T07:39:10;1.00;99.90
4962;DHT22;2496;52.468;13.342;2023-02-26T07:41:37;1.00;99.90
4962;DHT22;2496;52.468;13.342;2023-02-26T07:44:04;1.00;99.90
4962;DHT22;2496;52.468;13.342;2023-02-26T07:46:33;1.00;99.90
4962;DHT22;2496;52.468;13.342;2023-02-26T07:49:01;1.10;99.90
4962;DHT22;2496;52.468;13.342;2023-02-26T07:51:28;1.20;99.90
4962;DHT22;2496;52.468;13.342;2023-02-26T07:53:56;1.50;99.90
4962;DHT22;2496;52.468;13.342;2023-02-26T07:56:23;2.30;99.90
4962;DHT22;2496;52.468;13.342;2023-02-26T07:58:50;2.90;99.90
4962;DHT22;2496;52.468;13.342;2023-02-26T08:01:17;3.10;99.90
4962;DHT22;2496;52.468;13.342;2023-02-26T08:03:45;3.10;99.90
4962;DHT22;2496;52.468;13.342;2023-02-26T08:06:13;3.00;99.90
4962;DHT22;2496;52.468;13.342;2023-02-26T08:08:40;3.00;99.90
4962;DHT22;2496;52.468;13.342;2023-02-26T08:11:07;3.00;99.90
4962;DHT22;2496;52.468;13.342;2023-02-26T08:13:34;3.00;99.90
4962;DHT22;2496;52.468;13.342;2023-02-26T08:16:02;3.00;99.90
4962;DHT22;2496;52.468;13.342;2023-02-26T08:18:29;2.90;99.90
4962;DHT22;2496;52.468;13.342;2023-02-26T08:20:57;2.90;99.90
4962;DHT22;2496;52.468;13.342;2023-02-26T08:23:24;2.90;99.90
4962;DHT22;2496;52.468;13.342;2023-02-26T08:25:59;2.90;99.90
4962;DHT22;2496;52.468;13.342;2023-02-26T08:28:26;2.80;99.90
4962;DHT22;2496;52.468;13.342;2023-02-26T08:30:53;2.70;99.90
4962;DHT22;2496;52.468;13.342;2023-02-26T08:33:21;2.60;99.90
4962;DHT22;2496;52.468;13.342;2023-02-26T08:35:48;2.60;99.90
4962;DHT22;2496;52.468;13.342;2023-02-26T08:38:17;2.50;99.90
4962;DHT22;2496;52.468;13.342;2023-02-26T08:40:47;2.40;99.90
4962;DHT22;2496;52.468;13.342;2023-02-26T08:43:14;2.30;99.90
4962;DHT22;2496;52.468;13.342;2023-02-26T08:45:41;2.30;99.90
4962;DHT22;2496;52.468;13.342;2023-02-26T08:48:08;2.40;99.90
4962;DHT22;2496;52.468;13.342;2023-02-26T08:50:35;2.40;99.90
4962;DHT22;2496;52.468;13.342;2023-02-26T08:53:03;2.30;99.90
4962;DHT22;2496;52.468;13.342;2023-02-26T08:55:31;2.40;99.90
4962;DHT22;2496;52.468;13.342;2023-02-26T08:57:58;2.50;99.90
4962;DHT22;2496;52.468;13.342;2023-02-26T09:00:25;2.60;99.90
4962;DHT22;2496;52.468;13.342;2023-02-26T09:02:53;2.60;99.90
4962;DHT22;2496;52.468;13.342;2023-02-26T09:05:20;2.70;99.90
4962;DHT22;2496;52.468;13.342;2023-02-26T09:07:47;2.80;99.90
4962;DHT22;2496;52.468;13.342;2023-02-26T09:10:15;2.90;99.90
4962;DHT22;2496;52.468;13.342;2023-02-26T09:12:43;3.10;99.90
4962;DHT22;2496;52.468;13.342;2023-02-26T09:15:12;3.20;99.90
4962;DHT22;2496;52.468;13.342;2023-02-26T09:17:40;3.30;99.90
4962;DHT22;2496;52.468;13.342;2023-02-26T09:20:08;3.30;99.90
4962;DHT22;2496;52.468;13.342;2023-02-26T09:22:35;3.50;99.90
4962;DHT22;2496;52.468;13.342;2023-02-26T09:25:03;3.70;99.90
4962;DHT22;2496;52.468;13.342;2023-02-26T09:27:30;3.80;99.90
4962;DHT22;2496;52.468;13.342;2023-02-26T09:29:58;3.90;99.90
4962;DHT22;2496;52.468;13.342;2023-02-26T09:32:26;3.90;99.90
4962;DHT22;2496;52.468;13.342;2023-02-26T09:34:53;3.90;99.90
4962;DHT22;2496;52.468;13.342;2023-02-26T09:37:20;3.80;99.90
4962;DHT22;2496;52.468;13.342;2023-02-26T09:39:47;3.70;99.90
4962;DHT22;2496;52.468;13.342;2023-02-26T09:42:23;3.50;99.90
4962;DHT22;2496;52.468;13.342;2023-02-26T09:44:55;3.30;99.90
4962;DHT22;2496;52.468;13.342;2023-02-26T09:47:29;3.20;99.90
4962;DHT22;2496;52.468;13.342;2023-02-26T09:50:10;3.10;99.90
4962;DHT22;2496;52.468;13.342;2023-02-26T09:52:42;3.00;99.90
4962;DHT22;2496;52.468;13.342;2023-02-26T09:55:14;2.90;99.90
4962;DHT22;2496;52.468;13.342;2023-02-26T09:57:46;2.90;99.90
4962;DHT22;2496;52.468;13.342;2023-02-26T10:00:22;2.80;99.90
4962;DHT22;2496;52.468;13.342;2023-02-26T10:03:04;2.90;99.90
4962;DHT22;2496;52.468;13.342;2023-02-26T10:05:39;2.90;99.90
4962;DHT22;2496;52.468;13.342;2023-02-26T10:08:13;3.00;99.90
4962;DHT22;2496;52.468;13.342;2023-02-26T10:10:47;3.00;99.90
4962;DHT22;2496;52.468;13.342;2023-02-26T10:13:21;3.10;99.90
4962;DHT22;2496;52.468;13.342;2023-02-26T10:15:51;3.10;99.90
4962;DHT22;2496;52.468;13.342;2023-02-26T10:18:25;3.20;99.90
4962;DHT22;2496;52.468;13.342;2023-02-26T10:20:54;3.20;99.90
4962;DHT22;2496;52.468;13.342;2023-02-26T10:23:27;3.10;99.90
4962;DHT22;2496;52.468;13.342;2023-02-26T10:26:03;3.00;99.90
4962;DHT22;2496;52.468;13.342;2023-02-26T10:28:45;3.00;99.90
4962;DHT22;2496;52.468;13.342;2023-02-26T10:31:21;3.10;99.90
4962;DHT22;2496;52.468;13.342;2023-02-26T10:33:59;3.10;99.90
4962;DHT22;2496;52.468;13.342;2023-02-26T10:36:37;3.00;99.90
4962;DHT22;2496;52.468;13.342;2023-02-26T10:39:18;3.00;99.90
4962;DHT22;2496;52.468;13.342;2023-02-26T10:41:49;3.10;99.90
4962;DHT22;2496;52.468;13.342;2023-02-26T10:44:21;3.10;99.90
4962;DHT22;2496;52.468;13.342;2023-02-26T10:46:57;3.10;99.90
4962;DHT22;2496;52.468;13.342;2023-02-26T10:49:58;3.10;99.90
4962;DHT22;2496;52.468;13.342;2023-02-26T10:52:29;3.10;99.90
4962;DHT22;2496;52.468;13.342;2023-02-26T10:55:07;3.20;99.90
4962;DHT22;2496;52.468;13.342;2023-02-26T10:57:43;3.20;99.90
4962;DHT22;2496;52.468;13.342;2023-02-26T11:00:17;3.30;99.90
4962;DHT22;2496;52.468;13.342;2023-02-26T11:02:47;3.30;99.90
4962;DHT22;2496;52.468;13.342;2023-02-26T11:05:20;3.20;99.90
4962;DHT22;2496;52.468;13.342;2023-02-26T11:07:51;3.20;99.90
4962;DHT22;2496;52.468;13.342;2023-02-26T11:10:22;3.20;99.90
4962;DHT22;2496;52.468;13.342;2023-02-26T11:12:51;3.30;99.90
4962;DHT22;2496;52.468;13.342;2023-02-26T11:15:20;3.30;99.90
4962;DHT22;2496;52.468;13.342;2023-02-26T11:17:52;3.40;99.90
4962;DHT22;2496;52.468;13.342;2023-02-26T11:20:29;3.40;99.60
4962;DHT22;2496;52.468;13.342;2023-02-26T11:22:58;3.40;99.50
4962;DHT22;2496;52.468;13.342;2023-02-26T11:25:29;3.30;99.40
4962;DHT22;2496;52.468;13.342;2023-02-26T11:28:01;3.30;99.10
4962;DHT22;2496;52.468;13.342;2023-02-26T11:30:31;3.30;99.00
4962;DHT22;2496;52.468;13.342;2023-02-26T11:33:11;3.30;98.90
4962;DHT22;2496;52.468;13.342;2023-02-26T11:35:42;3.40;98.90
4962;DHT22;2496;52.468;13.342;2023-02-26T11:38:17;3.50;98.60
4962;DHT22;2496;52.468;13.342;2023-02-26T11:40:47;3.60;98.50
4962;DHT22;2496;52.468;13.342;2023-02-26T11:43:17;3.70;99.10
4962;DHT22;2496;52.468;13.342;2023-02-26T11:45:48;3.80;98.40
4962;DHT22;2496;52.468;13.342;2023-02-26T11:48:21;3.80;98.60
4962;DHT22;2496;52.468;13.342;2023-02-26T11:50:53;3.70;98.80
4962;DHT22;2496;52.468;13.342;2023-02-26T11:53:30;3.70;99.20
4962;DHT22;2496;52.468;13.342;2023-02-26T11:56:00;3.60;99.60
4962;DHT22;2496;52.468;13.342;2023-02-26T11:58:31;3.50;99.80
4962;DHT22;2496;52.468;13.342;2023-02-26T12:01:01;3.50;99.90
4962;DHT22;2496;52.468;13.342;2023-02-26T12:03:31;3.40;99.10
4962;DHT22;2496;52.468;13.342;2023-02-26T12:06:01;3.40;98.60
4962;DHT22;2496;52.468;13.342;2023-02-26T12:08:31;3.40;98.10
4962;DHT22;2496;52.468;13.342;2023-02-26T12:11:15;3.40;98.10
4962;DHT22;2496;52.468;13.342;2023-02-26T12:13:54;3.40;98.50
4962;DHT22;2496;52.468;13.342;2023-02-26T12:16:29;3.50;97.60
4962;DHT22;2496;52.468;13.342;2023-02-26T12:19:02;3.50;97.90
4962;DHT22;2496;52.468;13.342;2023-02-26T12:22:02;3.60;98.10
4962;DHT22;2496;52.468;13.342;2023-02-26T12:24:56;3.50;98.10
4962;DHT22;2496;52.468;13.342;2023-02-26T12:27:36;3.40;97.30
4962;DHT22;2496;52.468;13.342;2023-02-26T12:33:12;3.20;97.30
4962;DHT22;2496;52.468;13.342;2023-02-26T12:35:53;3.30;96.90
4962;DHT22;2496;52.468;13.342;2023-02-26T12:38:29;3.30;96.50
4962;DHT22;2496;52.468;13.342;2023-02-26T12:44:21;3.60;96.80
4962;DHT22;2496;52.468;13.342;2023-02-26T12:47:09;3.80;96.70
4962;DHT22;2496;52.468;13.342;2023-02-26T12:50:05;3.90;97.70
4962;DHT22;2496;52.468;13.342;2023-02-26T12:52:53;3.90;97.20
4962;DHT22;2496;52.468;13.342;2023-02-26T12:55:30;3.90;97.20
4962;DHT22;2496;52.468;13.342;2023-02-26T12:58:24;3.80;97.30
4962;DHT22;2496;52.468;13.342;2023-02-26T13:01:03;3.70;97.10
4962;DHT22;2496;52.468;13.342;2023-02-26T13:04:00;3.60;97.20
4962;DHT22;2496;52.468;13.342;2023-02-26T13:06:45;3.60;97.20
4962;DHT22;2496;52.468;13.342;2023-02-26T13:09:28;3.50;97.10
4962;DHT22;2496;52.468;13.342;2023-02-26T13:12:07;3.60;96.40
4962;DHT22;2496;52.468;13.342;2023-02-26T13:14:45;3.70;95.50
4962;DHT22;2496;52.468;13.342;2023-02-26T13:17:23;3.70;95.30
4962;DHT22;2496;52.468;13.342;2023-02-26T13:19:55;3.80;95.20
4962;DHT22;2496;52.468;13.342;2023-02-26T13:22:27;3.90;95.60
4962;DHT22;2496;52.468;13.342;2023-02-26T13:25:00;3.80;96.00
4962;DHT22;2496;52.468;13.342;2023-02-26T13:27:33;3.80;96.40
4962;DHT22;2496;52.468;13.342;2023-02-26T13:30:21;3.70;97.00
4962;DHT22;2496;52.468;13.342;2023-02-26T13:32:51;3.70;96.60
4962;DHT22;2496;52.468;13.342;2023-02-26T13:35:23;3.60;96.80
4962;DHT22;2496;52.468;13.342;2023-02-26T13:37:53;3.60;96.80
4962;DHT22;2496;52.468;13.342;2023-02-26T13:43:30;3.40;95.50
4962;DHT22;2496;52.468;13.342;2023-02-26T13:46:09;3.30;95.90
4962;DHT22;2496;52.468;13.342;2023-02-26T13:48:44;3.30;94.90
4962;DHT22;2496;52.468;13.342;2023-02-26T13:51:20;3.30;94.70
4962;DHT22;2496;52.468;13.342;2023-02-26T13:53:53;3.30;94.80
4962;DHT22;2496;52.468;13.342;2023-02-26T13:56:23;3.40;95.00
4962;DHT22;2496;52.468;13.342;2023-02-26T14:02:49;3.70;94.20
4962;DHT22;2496;52.468;13.342;2023-02-26T14:05:53;3.80;94.30
4962;DHT22;2496;52.468;13.342;2023-02-26T14:08:45;3.80;94.80
4962;DHT22;2496;52.468;13.342;2023-02-26T14:14:28;3.80;93.80
4962;DHT22;2496;52.468;13.342;2023-02-26T14:17:17;3.80;93.60
4962;DHT22;2496;52.468;13.342;2023-02-26T14:20:13;3.80;93.20
4962;DHT22;2496;52.468;13.342;2023-02-26T14:22:45;3.70;93.40
4962;DHT22;2496;52.468;13.342;2023-02-26T14:25:17;3.60;93.70
4962;DHT22;2496;52.468;13.342;2023-02-26T14:27:49;3.60;93.40
4962;DHT22;2496;52.468;13.342;2023-02-26T14:30:24;3.60;92.70
4962;DHT22;2496;52.468;13.342;2023-02-26T14:33:17;3.60;93.00
4962;DHT22;2496;52.468;13.342;2023-02-26T14:35:47;3.60;93.20
4962;DHT22;2496;52.468;13.342;2023-02-26T14:38:20;3.60;92.90
4962;DHT22;2496;52.468;13.342;2023-02-26T14:40:53;3.60;93.20
4962;DHT22;2496;52.468;13.342;2023-02-26T14:43:29;3.60;93.40
4962;DHT22;2496;52.468;13.342;2023-02-26T14:45:58;3.60;93.90
4962;DHT22;2496;52.468;13.342;2023-02-26T14:48:29;3.70;94.10
4962;DHT22;2496;52.468;13.342;2023-02-26T14:51:13;3.70;93.80
4962;DHT22;2496;52.468;13.342;2023-02-26T14:56:49;3.90;93.80
4962;DHT22;2496;52.468;13.342;2023-02-26T15:02:27;3.80;93.90
4962;DHT22;2496;52.468;13.342;2023-02-26T15:05:14;3.80;93.40
4962;DHT22;2496;52.468;13.342;2023-02-26T15:08:10;3.70;93.60
4962;DHT22;2496;52.468;13.342;2023-02-26T15:10:50;3.70;93.80
4962;DHT22;2496;52.468;13.342;2023-02-26T15:13:39;3.60;93.80
4962;DHT22;2496;52.468;13.342;2023-02-26T15:16:20;3.60;95.00
4962;DHT22;2496;52.468;13.342;2023-02-26T15:19:01;3.60;95.10
4962;DHT22;2496;52.468;13.342;2023-02-26T15:21:38;3.50;94.60
4962;DHT22;2496;52.468;13.342;2023-02-26T15:24:10;3.50;95.00
4962;DHT22;2496;52.468;13.342;2023-02-26T15:26:44;3.40;94.50
4962;DHT22;2496;52.468;13.342;2023-02-26T15:29:13;3.40;94.80
4962;DHT22;2496;52.468;13.342;2023-02-26T15:31:43;3.40;94.70
4962;DHT22;2496;52.468;13.342;2023-02-26T15:34:11;3.40;93.50
4962;DHT22;2496;52.468;13.342;2023-02-26T15:36:40;3.40;92.90
4962;DHT22;2496;52.468;13.342;2023-02-26T15:39:12;3.40;93.60
4962;DHT22;2496;52.468;13.342;2023-02-26T15:41:41;3.50;93.90
4962;DHT22;2496;52.468;13.342;2023-02-26T15:44:12;3.60;93.40
4962;DHT22;2496;52.468;13.342;2023-02-26T15:46:41;3.60;92.90
4962;DHT22;2496;52.468;13.342;2023-02-26T15:49:22;3.60;93.40
4962;DHT22;2496;52.468;13.342;2023-02-26T15:51:51;3.60;93.30
4962;DHT22;2496;52.468;13.342;2023-02-26T15:54:23;3.60;93.40
4962;DHT22;2496;52.468;13.342;2023-02-26T15:56:51;3.60;92.80
4962;DHT22;2496;52.468;13.342;2023-02-26T15:59:20;3.60;92.90
4962;DHT22;2496;52.468;13.342;2023-02-26T16:01:48;3.50;92.90
4962;DHT22;2496;52.468;13.342;2023-02-26T16:04:18;3.50;93.50
4962;DHT22;2496;52.468;13.342;2023-02-26T16:06:47;3.50;93.70
4962;DHT22;2496;52.468;13.342;2023-02-26T16:09:16;3.50;93.40
4962;DHT22;2496;52.468;13.342;2023-02-26T16:11:46;3.40;94.00
4962;DHT22;2496;52.468;13.342;2023-02-26T16:14:17;3.40;93.90
4962;DHT22;2496;52.468;13.342;2023-02-26T16:16:49;3.30;93.80
4962;DHT22;2496;52.468;13.342;2023-02-26T16:19:19;3.30;94.50
4962;DHT22;2496;52.468;13.342;2023-02-26T16:21:49;3.30;94.30
4962;DHT22;2496;52.468;13.342;2023-02-26T16:24:19;3.30;94.80
4962;DHT22;2496;52.468;13.342;2023-02-26T16:26:56;3.20;95.10
4962;DHT22;2496;52.468;13.342;2023-02-26T16:29:28;3.20;95.40
4962;DHT22;2496;52.468;13.342;2023-02-26T16:31:58;3.20;95.40
4962;DHT22;2496;52.468;13.342;2023-02-26T16:34:34;3.20;96.30
4962;DHT22;2496;52.468;13.342;2023-02-26T16:37:22;3.20;95.90
4962;DHT22;2496;52.468;13.342;2023-02-26T16:39:53;3.20;95.40
4962;DHT22;2496;52.468;13.342;2023-02-26T16:42:32;3.10;95.20
4962;DHT22;2496;52.468;13.342;2023-02-26T16:45:16;3.10;95.10
4962;DHT22;2496;52.468;13.342;2023-02-26T16:47:47;3.00;95.30
4962;DHT22;2496;52.468;13.342;2023-02-26T16:50:17;3.00;95.60
4962;DHT22;2496;52.468;13.342;2023-02-26T16:52:47;2.90;95.50
4962;DHT22;2496;52.468;13.342;2023-02-26T16:55:18;2.90;95.60
4962;DHT22;2496;52.468;13.342;2023-02-26T16:57:46;2.90;95.70
4962;DHT22;2496;52.468;13.342;2023-02-26T17:00:16;2.90;95.70
4962;DHT22;2496;52.468;13.342;2023-02-26T17:02:52;2.90;95.70